Time;durP1;ratioP1;P1;durP2;ratioP2;P2;SDS_P1;SDS_P2;PMS_P1;PMS_P2;Temp;Humidity;BMP_temperature;BMP_pressure;BME280_temperature;BME280_humidity;BME280_pressure;Samples;Min_cycle;Max_cycle;Signal;HPM_P1;HPM_P2
2023/08/16 00:00:53;;;;;;;11.40;10.25;;;18.70;1.00;;;;;;4998301;28;20183;-90
2023/08/16 00:03:18;;;;;;;12.27;10.45;;;18.60;1.00;;;;;;4997732;28;20172;-90
2023/08/16 00:05:46;;;;;;;11.40;10.43;;;18.60;1.00;;;;;;4997798;28;20176;-90
2023/08/16 00:08:12;;;;;;;11.38;10.32;;;18.60;1.00;;;;;;4997792;28;20227;-90
2023/08/16 00:10:37;;;;;;;11.98;10.85;;;18.50;1.00;;;;;;4997809;28;20227;-89
2023/08/16 00:13:03;;;;;;;11.57;10.52;;;18.70;1.00;;;;;;4997883;28;20187;-90
2023/08/16 00:15:29;;;;;;;10.57;9.65;;;18.60;1.00;;;;;;4997584;28;20568;-90
2023/08/16 00:17:55;;;;;;;10.98;9.98;;;18.60;1.00;;;;;;4997568;28;20227;-90
2023/08/16 00:20:24;;;;;;;12.27;11.07;;;18.70;1.00;;;;;;4982017;28;20230;-90
2023/08/16 00:22:50;;;;;;;11.90;10.73;;;18.80;1.00;;;;;;4997580;28;20175;-90
2023/08/16 00:25:16;;;;;;;12.60;10.20;;;18.80;1.00;;;;;;4997760;28;20229;-90
2023/08/16 00:27:41;;;;;;;10.65;9.65;;;18.90;1.00;;;;;;4997601;28;20652;-90
2023/08/16 00:30:08;;;;;;;11.05;10.05;;;18.90;99.90;;;;;;4997334;28;20205;-90
2023/08/16 00:32:34;;;;;;;10.43;9.52;;;19.00;99.90;;;;;;4997459;28;20596;-90
2023/08/16 00:35:00;;;;;;;10.65;9.55;;;19.00;99.90;;;;;;4997736;28;20214;-91
2023/08/16 00:37:25;;;;;;;12.10;10.23;;;18.90;99.90;;;;;;4997508;28;20262;-90
2023/08/16 00:39:51;;;;;;;12.75;9.70;;;18.90;99.90;;;;;;4997393;28;20182;-91
2023/08/16 00:42:16;;;;;;;10.88;9.77;;;18.90;99.90;;;;;;4997237;28;20271;-91
2023/08/16 00:44:42;;;;;;;10.60;8.93;;;18.90;95.50;;;;;;4996524;28;20184;-90
2023/08/16 00:47:08;;;;;;;13.90;9.77;;;18.90;99.90;;;;;;4997201;28;20235;-90
2023/08/16 00:49:33;;;;;;;10.18;8.60;;;18.90;99.90;;;;;;4997244;28;20187;-91
2023/08/16 00:52:01;;;;;;;9.35;8.55;;;19.00;1.00;;;;;;4997172;28;20564;-90
2023/08/16 00:54:27;;;;;;;10.52;9.25;;;18.90;1.00;;;;;;4997213;28;20664;-91
2023/08/16 00:56:53;;;;;;;12.50;11.18;;;18.80;99.90;;;;;;4997352;28;20199;-92
2023/08/16 00:59:20;;;;;;;9.55;8.55;;;18.60;99.90;;;;;;4997235;28;20206;-91
2023/08/16 01:01:46;;;;;;;11.40;10.23;;;18.40;99.90;;;;;;4997357;28;20172;-90
2023/08/16 01:04:12;;;;;;;22.23;13.05;;;18.30;1.00;;;;;;5014979;28;20187;-89
2023/08/16 01:06:38;;;;;;;11.32;10.07;;;18.30;1.00;;;;;;4997144;28;20160;-90
2023/08/16 01:09:04;;;;;;;18.02;13.98;;;18.30;1.00;;;;;;4996988;28;20202;-90
2023/08/16 01:11:38;;;;;;;14.40;12.90;;;18.30;1.00;;;;;;4996950;28;20186;-90
2023/08/16 01:14:38;;;;;;;14.52;12.52;;;18.40;1.00;;;;;;4996899;28;20210;-90
2023/08/16 01:17:05;;;;;;;14.35;12.95;;;18.50;1.00;;;;;;5014118;28;20203;-90
2023/08/16 01:19:32;;;;;;;12.63;11.32;;;18.50;1.00;;;;;;4996854;28;20246;-90
2023/08/16 01:22:23;;;;;;;12.57;11.32;;;18.50;1.00;;;;;;4996581;28;20720;-90
2023/08/16 01:25:16;;;;;;;23.30;13.27;;;18.50;1.00;;;;;;4996448;28;20558;-90
2023/08/16 01:27:43;;;;;;;15.88;13.23;;;18.50;1.00;;;;;;4996527;28;20200;-89
2023/08/16 01:30:10;;;;;;;13.30;12.10;;;18.50;1.00;;;;;;4996524;28;20179;-90
2023/08/16 01:32:36;;;;;;;14.02;12.60;;;18.50;1.00;;;;;;4996268;28;20186;-90
2023/08/16 01:35:03;;;;;;;14.00;12.52;;;18.40;1.00;;;;;;4996657;28;20570;-89
2023/08/16 01:37:29;;;;;;;14.52;12.32;;;18.50;1.00;;;;;;4996168;28;20590;-90
2023/08/16 01:40:03;;;;;;;13.40;12.10;;;18.60;1.00;;;;;;4996171;28;20179;-90
2023/08/16 01:42:32;;;;;;;12.55;11.35;;;18.60;99.90;;;;;;4995559;28;20171;-88
2023/08/16 01:44:59;;;;;;;12.23;11.00;;;18.60;99.90;;;;;;4996040;28;20171;-90
2023/08/16 01:47:27;;;;;;;12.93;11.55;;;18.60;99.90;;;;;;4995897;28;20203;-91
2023/08/16 01:49:55;;;;;;;13.38;12.15;;;18.60;99.90;;;;;;4996125;28;20183;-90
2023/08/16 01:52:21;;;;;;;12.25;11.15;;;18.60;99.90;;;;;;4996445;28;20198;-90
2023/08/16 01:54:46;;;;;;;12.90;11.60;;;18.70;99.90;;;;;;4995869;28;20197;-90
2023/08/16 01:57:12;;;;;;;12.50;11.23;;;18.70;99.90;;;;;;4995815;28;20314;-89
2023/08/16 01:59:37;;;;;;;12.60;11.40;;;18.70;99.90;;;;;;4996025;28;20206;-90
2023/08/16 02:02:03;;;;;;;12.70;11.15;;;18.80;84.50;;;;;;4995495;28;20183;-90
2023/08/16 02:04:29;;;;;;;13.25;11.55;;;18.80;1.00;;;;;;4995376;28;20213;-89
2023/08/16 02:06:54;;;;;;;11.93;10.75;;;18.90;1.00;;;;;;4995600;28;20560;-90
2023/08/16 02:09:20;;;;;;;13.07;11.77;;;18.90;99.90;;;;;;4995697;28;20533;-89
2023/08/16 02:11:45;;;;;;;13.82;12.43;;;19.00;1.00;;;;;;4995824;28;20180;-91
2023/08/16 02:14:11;;;;;;;16.38;13.00;;;19.00;1.00;;;;;;4995872;28;20701;-90
2023/08/16 02:16:37;;;;;;;13.65;11.20;;;18.90;1.00;;;;;;4995484;28;20211;-90
2023/08/16 02:19:02;;;;;;;11.20;10.00;;;19.00;99.90;;;;;;4995770;28;20242;-91
2023/08/16 02:21:28;;;;;;;11.68;10.45;;;19.00;1.00;;;;;;4995558;28;20183;-91
2023/08/16 02:23:54;;;;;;;10.68;8.88;;;19.00;1.00;;;;;;4995419;28;20182;-91
2023/08/16 02:26:19;;;;;;;10.90;9.75;;;18.90;1.00;;;;;;4995569;28;20439;-90
2023/08/16 02:28:45;;;;;;;11.32;9.18;;;18.90;29.40;;;;;;4995587;28;20207;-91
2023/08/16 02:31:10;;;;;;;9.60;8.80;;;18.90;15.30;;;;;;4995472;28;20653;-90
2023/08/16 02:33:36;;;;;;;10.35;9.30;;;18.90;1.00;;;;;;4995909;28;20222;-90
2023/08/16 02:36:02;;;;;;;9.95;8.95;;;18.90;1.00;;;;;;4995396;28;20183;-90
2023/08/16 02:38:28;;;;;;;10.38;9.45;;;18.90;1.00;;;;;;4995039;28;20212;-91
2023/08/16 02:40:54;;;;;;;9.73;8.93;;;18.80;1.00;;;;;;4995463;28;20192;-90
2023/08/16 02:43:20;;;;;;;10.18;8.15;;;18.60;1.00;;;;;;4995251;28;20259;-90
2023/08/16 02:45:46;;;;;;;9.27;8.48;;;18.60;1.00;;;;;;4995199;28;20270;-90
2023/08/16 02:48:11;;;;;;;8.57;7.88;;;18.60;1.00;;;;;;4995496;28;20234;-91
2023/08/16 02:50:37;;;;;;;10.77;8.00;;;18.60;1.00;;;;;;4995590;28;20176;-91
2023/08/16 02:53:03;;;;;;;8.00;7.22;;;18.60;1.00;;;;;;4997586;28;20191;-91
2023/08/16 02:55:29;;;;;;;8.77;8.07;;;18.30;1.00;;;;;;4999114;28;20214;-91
2023/08/16 02:57:55;;;;;;;8.30;7.47;;;18.40;15.50;;;;;;4999023;28;20223;-90
2023/08/16 03:00:21;;;;;;;9.65;8.85;;;18.40;14.90;;;;;;4999423;28;20768;-91
2023/08/16 03:02:46;;;;;;;9.55;8.75;;;18.40;1.00;;;;;;4998927;28;20654;-90
2023/08/16 03:05:12;;;;;;;8.45;7.75;;;18.40;1.00;;;;;;4999125;28;20179;-91
2023/08/16 03:07:39;;;;;;;9.15;8.35;;;18.50;1.00;;;;;;4998522;28;20304;-90
2023/08/16 03:10:05;;;;;;;10.23;9.27;;;18.60;1.00;;;;;;4998776;28;20203;-91
2023/08/16 03:12:31;;;;;;;8.82;8.13;;;18.70;1.00;;;;;;4998767;28;20184;-91
2023/08/16 03:14:57;;;;;;;9.85;8.98;;;18.70;1.00;;;;;;4998600;28;20688;-91
2023/08/16 03:17:22;;;;;;;11.70;10.60;;;18.80;1.00;;;;;;4998913;28;20211;-91
2023/08/16 03:19:48;;;;;;;13.30;11.98;;;18.90;1.00;;;;;;4998731;28;20330;-91
2023/08/16 03:22:13;;;;;;;12.68;11.48;;;19.00;1.00;;;;;;4998695;28;20827;-90
2023/08/16 03:24:41;;;;;;;12.38;11.27;;;19.00;1.00;;;;;;4998540;28;20176;-91
2023/08/16 03:27:07;;;;;;;12.90;11.65;;;19.00;1.00;;;;;;4982621;28;20253;-90
2023/08/16 03:29:34;;;;;;;14.75;13.25;;;19.00;99.90;;;;;;4998782;28;20390;-91
2023/08/16 03:31:59;;;;;;;13.85;12.45;;;19.00;99.90;;;;;;4998510;28;20184;-91
2023/08/16 03:34:25;;;;;;;12.52;11.23;;;19.00;99.90;;;;;;4998260;28;20547;-91
2023/08/16 03:36:51;;;;;;;10.70;9.70;;;19.00;99.90;;;;;;4998612;28;20176;-91
2023/08/16 03:39:16;;;;;;;12.65;11.40;;;18.90;9.80;;;;;;4998763;28;20661;-91
2023/08/16 03:41:42;;;;;;;12.02;10.82;;;18.90;1.00;;;;;;4998812;28;20633;-91
2023/08/16 03:44:07;;;;;;;11.95;10.93;;;18.90;12.00;;;;;;4998429;28;20175;-91
2023/08/16 03:46:34;;;;;;;11.90;10.90;;;18.90;15.30;;;;;;4998578;28;20180;-92
2023/08/16 03:48:59;;;;;;;11.80;10.80;;;18.80;99.90;;;;;;4998692;28;20684;-91
2023/08/16 03:51:25;;;;;;;10.15;9.35;;;18.90;18.80;;;;;;4998765;28;20239;-93
2023/08/16 03:53:51;;;;;;;12.27;10.88;;;18.90;1.00;;;;;;4998404;28;20186;-93
2023/08/16 03:56:16;;;;;;;11.30;10.30;;;18.90;1.00;;;;;;4998460;28;20176;-91
2023/08/16 03:58:42;;;;;;;12.85;11.75;;;18.90;1.00;;;;;;4998306;28;20212;-91
2023/08/16 04:01:07;;;;;;;11.45;10.35;;;18.90;1.00;;;;;;4998557;28;20663;-91
2023/08/16 04:03:33;;;;;;;12.98;11.68;;;18.90;1.00;;;;;;4997853;28;20183;-91
2023/08/16 04:05:58;;;;;;;14.90;11.85;;;18.90;1.00;;;;;;4997922;28;20266;-91
2023/08/16 04:08:24;;;;;;;15.38;12.98;;;18.80;21.70;;;;;;4997880;28;20290;-91
2023/08/16 04:10:50;;;;;;;14.77;12.32;;;18.80;1.00;;;;;;4998165;28;20187;-91
2023/08/16 04:13:16;;;;;;;12.95;11.43;;;18.80;1.00;;;;;;4997760;28;20184;-91
2023/08/16 04:15:41;;;;;;;11.85;10.63;;;18.90;1.00;;;;;;4997713;28;20249;-91
2023/08/16 04:18:08;;;;;;;13.40;11.05;;;18.80;1.00;;;;;;4997335;28;20630;-90
2023/08/16 04:20:33;;;;;;;10.35;9.35;;;18.80;1.00;;;;;;4997588;28;20195;-90
2023/08/16 04:22:59;;;;;;;18.02;11.25;;;18.80;1.00;;;;;;4997462;28;20310;-91
2023/08/16 04:25:25;;;;;;;15.05;11.30;;;18.80;1.00;;;;;;4997598;28;20223;-91
2023/08/16 04:27:51;;;;;;;13.07;10.30;;;18.90;1.00;;;;;;4998318;28;20202;-91
2023/08/16 04:30:16;;;;;;;12.02;10.10;;;18.90;1.00;;;;;;4998582;28;20195;-91
2023/08/16 04:32:42;;;;;;;10.40;9.50;;;18.90;1.00;;;;;;4998481;28;20183;-92
2023/08/16 04:35:08;;;;;;;11.38;10.25;;;18.90;1.00;;;;;;4997941;28;20226;-91
2023/08/16 04:37:34;;;;;;;17.90;12.90;;;18.90;1.00;;;;;;4997904;28;20269;-91
2023/08/16 04:39:59;;;;;;;11.13;10.07;;;19.00;1.00;;;;;;4997725;28;20218;-91
2023/08/16 04:42:25;;;;;;;11.85;10.75;;;19.00;99.90;;;;;;4997882;28;20171;-90
2023/08/16 04:44:51;;;;;;;14.82;10.43;;;19.00;99.90;;;;;;4997501;28;20179;-91
2023/08/16 04:47:18;;;;;;;11.15;10.25;;;19.10;1.00;;;;;;4998007;28;20266;-91
2023/08/16 04:49:58;;;;;;;10.00;9.20;;;19.10;99.90;;;;;;4981870;28;20279;-91
2023/08/16 04:52:26;;;;;;;12.13;10.52;;;18.90;99.90;;;;;;4997376;28;20179;-90
2023/08/16 04:55:15;;;;;;;11.35;10.45;;;19.00;1.00;;;;;;4997524;28;20175;-91
2023/08/16 04:57:41;;;;;;;11.05;10.07;;;19.00;1.00;;;;;;4998247;28;20700;-91
2023/08/16 05:00:08;;;;;;;9.27;8.48;;;19.10;1.00;;;;;;4997511;28;20215;-91
2023/08/16 05:02:34;;;;;;;10.98;10.07;;;19.10;1.00;;;;;;4997525;28;20659;-91
2023/08/16 05:05:00;;;;;;;12.93;11.73;;;19.30;1.00;;;;;;4997467;28;20267;-90
2023/08/16 05:07:25;;;;;;;11.90;10.90;;;19.50;1.00;;;;;;4997074;28;20204;-90
2023/08/16 05:09:51;;;;;;;10.60;9.70;;;19.60;99.90;;;;;;4997524;28;20531;-90
2023/08/16 05:12:17;;;;;;;10.88;10.00;;;19.70;99.90;;;;;;4997361;28;20663;-90
2023/08/16 05:14:42;;;;;;;9.68;8.73;;;19.60;1.00;;;;;;4997297;28;20183;-90
2023/08/16 05:17:08;;;;;;;11.13;10.20;;;19.40;1.00;;;;;;4996520;28;20222;-90
2023/08/16 05:19:34;;;;;;;11.52;10.52;;;19.40;1.00;;;;;;4996718;28;20222;-90
2023/08/16 05:22:00;;;;;;;11.40;10.40;;;19.50;1.00;;;;;;4996477;28;20202;-90
2023/08/16 05:24:50;;;;;;;11.02;10.13;;;19.60;1.00;;;;;;4996494;28;20266;-90
2023/08/16 05:27:16;;;;;;;13.20;11.90;;;19.60;38.60;;;;;;4996117;28;20195;-90
2023/08/16 05:29:42;;;;;;;10.98;10.07;;;19.60;99.90;;;;;;4980248;28;20241;-90
2023/08/16 05:32:08;;;;;;;11.10;10.10;;;19.60;1.00;;;;;;4996306;28;20184;-90
2023/08/16 05:34:41;;;;;;;10.57;9.73;;;19.60;99.90;;;;;;4995258;28;20676;-90
2023/08/16 05:37:09;;;;;;;10.93;9.82;;;19.50;1.00;;;;;;4996506;28;20215;-90
2023/08/16 05:39:38;;;;;;;10.40;9.50;;;19.50;99.90;;;;;;4996552;28;20175;-90
2023/08/16 05:42:04;;;;;;;11.05;10.05;;;19.50;1.00;;;;;;5013949;28;20251;-90
2023/08/16 05:44:29;;;;;;;11.27;10.35;;;19.70;99.90;;;;;;4996283;28;20206;-87
2023/08/16 05:46:55;;;;;;;12.68;11.10;;;19.90;99.90;;;;;;5013261;28;20549;-87
2023/08/16 05:49:21;;;;;;;9.85;9.05;;;20.20;1.00;;;;;;4995635;28;20259;-87
2023/08/16 05:51:46;;;;;;;10.75;9.65;;;20.20;99.90;;;;;;5013273;28;20168;-86
2023/08/16 05:54:12;;;;;;;10.02;9.23;;;20.00;94.50;;;;;;5028238;28;20175;-87
2023/08/16 05:56:37;;;;;;;10.65;9.85;;;20.10;99.90;;;;;;4995512;28;20225;-88
2023/08/16 05:59:03;;;;;;;10.80;9.80;;;20.20;1.00;;;;;;5028192;28;20310;-87
2023/08/16 06:01:31;;;;;;;10.10;9.30;;;20.10;99.90;;;;;;4995147;28;20645;-87
2023/08/16 06:03:57;;;;;;;10.18;9.27;;;20.20;99.90;;;;;;5012940;28;20160;-87
2023/08/16 06:06:22;;;;;;;9.50;8.75;;;20.20;1.00;;;;;;4994439;28;20183;-87
2023/08/16 06:08:49;;;;;;;10.63;9.75;;;20.30;1.00;;;;;;5012723;28;20218;-87
2023/08/16 06:11:15;;;;;;;10.10;9.30;;;20.30;1.00;;;;;;4995413;28;20637;-87
2023/08/16 06:13:40;;;;;;;9.30;8.60;;;20.50;99.90;;;;;;5028045;28;20189;-87
2023/08/16 06:16:06;;;;;;;9.82;8.90;;;20.70;99.90;;;;;;4995255;28;20171;-87
2023/08/16 06:18:31;;;;;;;8.43;7.82;;;21.10;99.90;;;;;;5012578;28;20286;-88
2023/08/16 06:20:57;;;;;;;7.30;6.70;;;21.20;1.00;;;;;;4995266;28;20179;-87
2023/08/16 06:23:23;;;;;;;7.45;6.82;;;21.30;99.90;;;;;;4995019;28;20375;-87
2023/08/16 06:25:48;;;;;;;6.90;6.30;;;21.50;99.90;;;;;;4995086;28;20175;-88
2023/08/16 06:28:14;;;;;;;6.18;5.68;;;22.10;1.00;;;;;;5027344;28;20199;-87
2023/08/16 06:30:41;;;;;;;5.93;5.43;;;23.70;99.90;;;;;;4995297;28;20190;-87
2023/08/16 06:33:07;;;;;;;5.50;5.00;;;25.30;92.00;;;;;;4994612;28;20183;-87
2023/08/16 06:35:32;;;;;;;5.47;4.95;;;26.00;86.30;;;;;;5012479;28;20175;-87
2023/08/16 06:37:58;;;;;;;5.18;4.72;;;26.20;29.10;;;;;;4994621;28;20216;-87
2023/08/16 06:40:23;;;;;;;5.72;5.18;;;26.40;1.00;;;;;;4995093;28;20183;-87
2023/08/16 06:42:49;;;;;;;5.65;5.15;;;25.80;1.00;;;;;;4994896;28;20306;-87
2023/08/16 06:45:15;;;;;;;5.60;5.10;;;25.00;1.00;;;;;;4994839;28;20199;-88
2023/08/16 06:47:42;;;;;;;6.18;5.60;;;24.30;1.00;;;;;;5027716;28;20736;-88
2023/08/16 06:50:09;;;;;;;5.97;5.38;;;23.80;1.00;;;;;;4994601;28;20641;-88
2023/08/16 06:52:34;;;;;;;5.93;5.43;;;24.10;1.00;;;;;;4989287;28;20200;-87
2023/08/16 06:55:01;;;;;;;5.50;4.95;;;24.30;1.00;;;;;;4993188;28;20199;-88
2023/08/16 06:57:27;;;;;;;5.93;5.28;;;24.00;1.00;;;;;;4994671;28;20693;-88
2023/08/16 06:59:53;;;;;;;5.75;5.18;;;23.90;1.00;;;;;;4994762;28;20187;-90
2023/08/16 07:02:20;;;;;;;6.57;5.03;;;23.70;1.00;;;;;;4994495;28;20706;-89
2023/08/16 07:04:46;;;;;;;5.63;5.13;;;21.70;1.00;;;;;;4993881;28;20171;-88
2023/08/16 07:07:12;;;;;;;6.03;5.45;;;23.30;1.00;;;;;;4994561;28;20210;-89
2023/08/16 07:09:38;;;;;;;6.10;4.60;;;22.80;1.00;;;;;;5008239;28;20189;-87
2023/08/16 07:12:04;;;;;;;5.90;5.30;;;22.60;1.00;;;;;;5005490;28;20718;-87
2023/08/16 07:14:29;;;;;;;6.47;5.20;;;22.30;1.00;;;;;;5002457;28;20206;-87
2023/08/16 07:16:55;;;;;;;7.18;5.43;;;22.30;1.00;;;;;;5002935;28;20191;-87
2023/08/16 07:19:21;;;;;;;6.85;4.93;;;22.00;1.00;;;;;;5013851;28;20195;-87
2023/08/16 07:21:48;;;;;;;8.32;5.32;;;21.60;1.00;;;;;;5014040;28;20562;-88
2023/08/16 07:24:13;;;;;;;6.05;4.72;;;21.60;1.00;;;;;;5013753;28;20222;-87
2023/08/16 07:26:39;;;;;;;6.10;5.43;;;21.70;99.90;;;;;;5013835;28;20771;-87
2023/08/16 07:29:05;;;;;;;6.97;5.60;;;21.80;99.90;;;;;;5013283;28;20566;-87
2023/08/16 07:31:30;;;;;;;5.97;5.38;;;22.10;6.20;;;;;;5031438;28;20265;-87
2023/08/16 07:33:56;;;;;;;6.85;4.78;;;22.40;1.00;;;;;;5013483;28;20179;-87
2023/08/16 07:36:22;;;;;;;6.55;5.22;;;22.20;1.00;;;;;;5013598;28;20179;-87
2023/08/16 07:38:47;;;;;;;8.43;6.25;;;22.50;1.00;;;;;;5013910;28;20229;-87
2023/08/16 07:41:13;;;;;;;6.22;5.63;;;22.80;1.00;;;;;;5035086;28;20717;-87
2023/08/16 07:43:39;;;;;;;7.20;6.10;;;23.10;1.00;;;;;;5017341;28;20185;-89
2023/08/16 07:46:05;;;;;;;6.20;5.60;;;23.30;1.00;;;;;;5034650;28;20174;-87
2023/08/16 07:48:30;;;;;;;6.75;5.53;;;23.40;1.00;;;;;;5017176;28;20198;-87
2023/08/16 07:50:56;;;;;;;5.75;5.25;;;23.60;1.00;;;;;;5017120;28;20179;-88
2023/08/16 07:53:24;;;;;;;8.02;5.85;;;23.80;1.00;;;;;;5034481;28;20539;-88
2023/08/16 07:55:50;;;;;;;7.90;6.20;;;23.60;1.00;;;;;;5028903;28;20183;-88
2023/08/16 07:58:16;;;;;;;6.68;5.85;;;23.50;1.00;;;;;;4995680;28;20582;-88
2023/08/16 08:00:42;;;;;;;6.63;5.82;;;23.60;1.00;;;;;;4992944;28;20238;-88
2023/08/16 08:03:09;;;;;;;6.78;5.78;;;23.70;1.00;;;;;;5009280;28;20187;-88
2023/08/16 08:05:35;;;;;;;6.93;6.22;;;23.80;1.00;;;;;;4996452;28;20701;-88
2023/08/16 08:08:01;;;;;;;6.53;5.82;;;23.80;1.00;;;;;;4999687;28;20261;-88
2023/08/16 08:10:30;;;;;;;6.10;5.50;;;24.00;1.00;;;;;;4998731;28;20265;-88
2023/08/16 08:12:55;;;;;;;7.03;6.05;;;24.20;1.00;;;;;;5001532;28;20210;-89
2023/08/16 08:15:21;;;;;;;7.18;6.47;;;24.40;1.00;;;;;;5000537;28;20188;-89
2023/08/16 08:17:47;;;;;;;7.45;6.72;;;24.40;1.00;;;;;;4999152;28;20207;-89
2023/08/16 08:20:15;;;;;;;6.65;5.97;;;24.00;1.00;;;;;;4989714;28;20627;-90
2023/08/16 08:22:42;;;;;;;7.75;6.93;;;24.00;1.00;;;;;;4996498;28;20287;-89
2023/08/16 08:25:08;;;;;;;7.88;6.35;;;24.30;1.00;;;;;;5002554;28;20227;-89
2023/08/16 08:27:34;;;;;;;7.50;6.80;;;24.40;1.00;;;;;;5005130;28;20207;-88
2023/08/16 08:30:02;;;;;;;7.55;6.68;;;24.30;1.00;;;;;;4997018;28;20278;-88
2023/08/16 08:32:28;;;;;;;7.22;6.15;;;24.30;1.00;;;;;;4993182;28;20184;-87
2023/08/16 08:34:53;;;;;;;9.18;6.50;;;24.30;1.00;;;;;;5004988;28;20198;-87
2023/08/16 08:37:19;;;;;;;7.53;6.93;;;24.30;1.00;;;;;;4994858;28;20804;-87
2023/08/16 08:39:45;;;;;;;8.27;6.25;;;24.30;1.00;;;;;;4991650;28;20188;-88
2023/08/16 08:42:11;;;;;;;7.10;6.40;;;24.30;1.00;;;;;;4994888;28;20555;-87
2023/08/16 08:44:38;;;;;;;7.35;6.43;;;24.60;1.00;;;;;;4994739;28;20191;-87
2023/08/16 08:47:09;;;;;;;8.07;6.40;;;24.80;1.00;;;;;;4998718;28;20209;-87
2023/08/16 08:49:34;;;;;;;7.03;6.43;;;24.80;1.00;;;;;;4997274;28;20183;-87
2023/08/16 08:52:04;;;;;;;7.40;6.55;;;24.90;1.00;;;;;;4997423;28;20194;-89
2023/08/16 08:54:32;;;;;;;7.40;6.70;;;24.90;1.00;;;;;;4998377;28;20250;-89
2023/08/16 08:57:02;;;;;;;7.13;6.40;;;25.00;1.00;;;;;;4997272;28;20261;-89
2023/08/16 08:59:30;;;;;;;6.95;6.25;;;25.30;1.00;;;;;;4999909;28;20183;-88
2023/08/16 09:01:58;;;;;;;14.00;8.38;;;25.20;1.00;;;;;;5014802;28;20768;-88
2023/08/16 09:04:25;;;;;;;9.45;6.95;;;25.00;1.00;;;;;;4998454;28;20176;-87
2023/08/16 09:06:53;;;;;;;7.50;6.28;;;24.60;1.00;;;;;;4995338;28;20211;-88
2023/08/16 09:09:21;;;;;;;7.32;6.63;;;24.60;1.00;;;;;;5013246;28;20188;-88
2023/08/16 09:11:49;;;;;;;7.72;6.63;;;24.60;1.00;;;;;;4993827;28;20616;-88
2023/08/16 09:14:15;;;;;;;7.72;6.90;;;24.30;1.00;;;;;;4996597;28;20198;-88
2023/08/16 09:16:40;;;;;;;8.95;7.70;;;24.10;1.00;;;;;;4999115;28;20271;-88
2023/08/16 09:19:16;;;;;;;9.00;8.10;;;23.90;1.00;;;;;;4997347;28;20603;-87
2023/08/16 09:21:42;;;;;;;10.02;9.07;;;23.50;1.00;;;;;;5013685;28;20676;-89
2023/08/16 09:24:08;;;;;;;9.32;8.52;;;23.50;1.00;;;;;;4999457;28;20188;-89
2023/08/16 09:26:36;;;;;;;10.57;8.55;;;23.70;1.00;;;;;;5000775;28;20187;-88
2023/08/16 09:29:03;;;;;;;8.65;7.82;;;23.60;1.00;;;;;;4998186;28;20261;-88
2023/08/16 09:31:30;;;;;;;9.30;8.30;;;23.50;1.00;;;;;;4998159;28;20322;-89
2023/08/16 09:34:01;;;;;;;9.40;8.32;;;23.60;1.00;;;;;;5000772;28;20191;-90
2023/08/16 09:36:30;;;;;;;9.38;8.48;;;23.80;1.00;;;;;;4997786;28;20204;-88
2023/08/16 09:39:08;;;;;;;9.00;8.07;;;23.70;1.00;;;;;;4997943;28;20578;-88
2023/08/16 09:41:36;;;;;;;8.00;7.25;;;23.70;1.00;;;;;;4997048;28;20183;-87
2023/08/16 09:44:06;;;;;;;9.02;8.13;;;23.90;1.00;;;;;;4998365;28;20314;-88
2023/08/16 09:46:35;;;;;;;8.95;8.07;;;24.00;1.00;;;;;;4996938;28;20190;-88
2023/08/16 09:49:07;;;;;;;9.60;8.65;;;23.70;1.00;;;;;;5006777;28;20281;-89
2023/08/16 09:51:42;;;;;;;9.80;8.02;;;23.70;1.00;;;;;;4999191;28;20184;-87
2023/08/16 09:54:14;;;;;;;9.48;8.50;;;23.60;1.00;;;;;;4998387;28;20187;-87
2023/08/16 09:56:43;;;;;;;8.10;7.40;;;23.40;1.00;;;;;;4993958;28;20175;-88
2023/08/16 09:59:12;;;;;;;9.10;8.20;;;23.40;1.00;;;;;;4997820;28;20705;-89
2023/08/16 10:01:39;;;;;;;9.25;8.05;;;23.40;1.00;;;;;;4996323;28;20712;-88
2023/08/16 10:04:07;;;;;;;7.68;7.05;;;23.40;1.00;;;;;;4993986;28;20187;-90
2023/08/16 10:06:34;;;;;;;8.30;7.60;;;23.50;1.00;;;;;;4997130;28;20238;-89
2023/08/16 10:09:04;;;;;;;8.18;7.47;;;23.30;1.00;;;;;;4997709;28;20265;-89
2023/08/16 10:11:36;;;;;;;9.98;7.72;;;23.30;1.00;;;;;;5009172;28;20221;-92
2023/08/16 10:14:06;;;;;;;8.15;7.35;;;23.20;1.00;;;;;;4997171;28;20187;-90
2023/08/16 10:16:35;;;;;;;8.20;7.40;;;23.20;1.00;;;;;;4997799;28;20250;-90
2023/08/16 10:19:02;;;;;;;8.50;7.35;;;23.20;1.00;;;;;;4995947;28;20223;-91
2023/08/16 10:22:07;;;;;;;7.70;7.10;;;23.40;1.00;;;;;;5000711;28;20842;-90
2023/08/16 10:24:36;;;;;;;9.13;7.95;;;23.40;1.00;;;;;;4997170;28;20191;-90
2023/08/16 16:27:28;;;;;;;9.50;8.80;;;23.70;1.00;;;;;;5020924;22;20827;-75
2023/08/16 16:29:54;;;;;;;9.07;8.27;;;22.90;83.80;;;;;;5026838;28;20191;-76
2023/08/16 16:32:19;;;;;;;9.80;8.85;;;22.90;99.90;;;;;;5008514;28;20183;-75
2023/08/16 16:34:45;;;;;;;9.30;8.52;;;23.00;99.90;;;;;;5026264;28;21065;-75
2023/08/16 16:37:11;;;;;;;9.65;8.73;;;23.00;1.00;;;;;;5026217;28;20203;-76
2023/08/16 16:39:37;;;;;;;10.25;9.23;;;22.90;1.00;;;;;;5026703;28;20210;-75
2023/08/16 16:42:04;;;;;;;10.13;9.20;;;22.90;99.90;;;;;;5008455;28;21015;-76
2023/08/16 16:44:30;;;;;;;9.70;8.80;;;22.90;99.90;;;;;;5026404;28;20195;-75
2023/08/16 16:46:56;;;;;;;10.05;9.15;;;22.90;99.90;;;;;;5025321;28;20180;-76
2023/08/16 16:49:21;;;;;;;9.32;8.57;;;22.80;1.00;;;;;;5026650;28;20668;-76
2023/08/16 16:51:47;;;;;;;10.10;9.20;;;22.80;1.00;;;;;;5025919;28;20179;-76
2023/08/16 16:54:13;;;;;;;10.05;9.15;;;22.80;99.90;;;;;;5026267;28;20677;-76
2023/08/16 16:56:39;;;;;;;9.52;8.73;;;22.80;99.90;;;;;;5025226;28;20202;-76
2023/08/16 16:59:04;;;;;;;9.27;8.48;;;22.80;99.90;;;;;;5008834;28;20238;-75
2023/08/16 17:01:30;;;;;;;9.43;8.63;;;22.80;1.00;;;;;;5025706;28;20182;-75
2023/08/16 17:03:56;;;;;;;10.35;9.30;;;22.80;1.00;;;;;;5026250;28;20277;-76
2023/08/16 17:06:22;;;;;;;9.85;8.77;;;22.70;40.90;;;;;;5025067;28;20213;-76
2023/08/16 17:08:47;;;;;;;9.38;8.48;;;22.70;1.00;;;;;;5026147;28;20183;-76
2023/08/16 17:11:13;;;;;;;9.85;8.95;;;22.70;1.00;;;;;;5025643;28;20236;-76
2023/08/16 17:13:39;;;;;;;9.82;8.93;;;22.70;86.90;;;;;;5025767;28;20211;-76
2023/08/16 17:16:04;;;;;;;9.23;8.43;;;22.70;1.00;;;;;;5024867;28;20182;-75
2023/08/16 17:18:30;;;;;;;9.43;8.63;;;22.70;99.90;;;;;;5025587;28;20202;-75
2023/08/16 17:20:59;;;;;;;9.70;8.82;;;22.70;1.00;;;;;;5007482;28;20179;-76
2023/08/16 17:23:25;;;;;;;11.15;10.15;;;22.70;99.90;;;;;;5025880;28;20203;-75
2023/08/16 17:25:53;;;;;;;9.75;8.85;;;22.60;1.00;;;;;;5024640;28;20668;-76
2023/08/16 17:28:19;;;;;;;10.13;9.18;;;22.60;1.00;;;;;;5025483;28;20352;-76
2023/08/16 17:30:48;;;;;;;9.88;8.98;;;22.70;1.00;;;;;;5025412;28;20228;-76
2023/08/16 17:33:14;;;;;;;10.32;8.60;;;22.60;1.00;;;;;;5025251;28;20261;-76
2023/08/16 17:35:43;;;;;;;8.93;8.10;;;22.50;99.90;;;;;;5024864;28;20182;-76
2023/08/16 17:38:08;;;;;;;9.18;8.30;;;22.60;1.00;;;;;;5007915;28;21158;-76
2023/08/16 17:40:34;;;;;;;8.43;7.70;;;22.50;1.00;;;;;;5025517;28;20189;-76
2023/08/16 17:42:59;;;;;;;8.35;7.60;;;22.50;99.90;;;;;;5025219;28;20206;-76
2023/08/16 17:45:25;;;;;;;9.85;7.95;;;22.50;1.00;;;;;;5024884;28;20642;-75
2023/08/16 17:47:51;;;;;;;8.68;7.78;;;22.30;1.00;;;;;;5025017;28;20221;-75
2023/08/16 17:50:16;;;;;;;7.95;7.25;;;22.20;1.00;;;;;;5005986;28;20507;-75
2023/08/16 17:52:42;;;;;;;9.20;8.20;;;22.20;1.00;;;;;;5023095;28;20197;-75
2023/08/16 17:55:08;;;;;;;8.70;7.90;;;22.10;1.00;;;;;;5006327;28;20658;-75
2023/08/16 17:57:33;;;;;;;9.15;8.35;;;22.00;99.90;;;;;;5024740;28;20458;-75
2023/08/16 17:59:59;;;;;;;9.52;8.43;;;21.90;1.00;;;;;;5025297;28;20175;-75
2023/08/16 18:02:25;;;;;;;9.10;8.25;;;21.80;1.00;;;;;;5024715;28;20241;-75
2023/08/16 18:04:50;;;;;;;8.93;8.02;;;21.70;1.00;;;;;;5024659;28;20248;-75
2023/08/16 18:07:17;;;;;;;9.38;8.60;;;21.70;1.00;;;;;;5024704;28;20567;-76
2023/08/16 18:09:43;;;;;;;9.10;8.23;;;21.70;1.00;;;;;;5023911;28;20198;-75
2023/08/16 18:12:09;;;;;;;9.52;8.57;;;21.60;58.60;;;;;;5023403;28;20709;-75
2023/08/16 18:14:35;;;;;;;8.68;7.88;;;21.50;1.00;;;;;;5024429;28;20288;-76
2023/08/16 18:17:01;;;;;;;9.80;8.85;;;21.50;90.20;;;;;;5024183;28;20252;-75
2023/08/16 18:19:26;;;;;;;10.00;9.00;;;21.40;99.90;;;;;;5024858;28;20225;-75
2023/08/16 18:21:52;;;;;;;9.32;8.35;;;21.30;99.90;;;;;;5023504;28;20185;-75
2023/08/16 18:24:17;;;;;;;9.38;8.57;;;21.20;1.00;;;;;;5023390;28;20771;-75
2023/08/16 18:26:43;;;;;;;8.60;7.80;;;21.10;1.00;;;;;;5023434;28;20175;-75
2023/08/16 18:29:09;;;;;;;9.00;8.20;;;21.10;1.00;;;;;;5024945;28;20194;-75
2023/08/16 18:31:35;;;;;;;8.73;7.90;;;21.10;69.40;;;;;;5005689;28;20269;-74
2023/08/16 18:34:01;;;;;;;8.50;7.90;;;21.10;27.20;;;;;;5023385;28;20341;-75
2023/08/16 18:36:26;;;;;;;9.02;8.13;;;21.00;99.90;;;;;;5023666;28;20252;-75
2023/08/16 18:38:52;;;;;;;8.95;8.13;;;21.00;99.90;;;;;;5024522;28;20202;-75
2023/08/16 18:41:17;;;;;;;10.70;9.70;;;20.90;99.90;;;;;;5024766;28;20187;-75
2023/08/16 18:43:43;;;;;;;8.82;8.02;;;20.90;99.90;;;;;;5024736;28;20202;-76